Time;durP1;ratioP1;P1;durP2;ratioP2;P2;SDS_P1;SDS_P2;PMS_P1;PMS_P2;Temp;Humidity;BMP_temperature;BMP_pressure;BME280_temperature;BME280_humidity;BME280_pressure;Samples;Min_cycle;Max_cycle;Signal;HPM_P1;HPM_P2
2021/08/03 00:00:13;;;;;;;0.60;0.60;;;;;;;14.05;100.00;100545.31;5010568;28;20173;-72
2021/08/03 00:02:44;;;;;;;0.77;0.50;;;;;;;14.00;100.00;100566.31;5011408;28;20185;-72
2021/08/03 00:05:10;;;;;;;1.07;1.00;;;;;;;14.02;100.00;100574.22;5012518;28;20156;-71
2021/08/03 00:07:37;;;;;;;5.10;0.93;;;;;;;13.95;100.00;100560.22;5013912;28;20215;-72
2021/08/03 00:10:05;;;;;;;1.00;0.70;;;;;;;13.97;100.00;100571.66;5011783;28;20238;-72
2021/08/03 00:12:30;;;;;;;1.70;0.47;;;;;;;13.93;100.00;100577.03;5011506;28;20181;-72
2021/08/03 00:14:56;;;;;;;1.30;0.80;;;;;;;13.92;100.00;100582.84;5011448;28;20239;-71
2021/08/03 00:17:23;;;;;;;0.77;0.77;;;;;;;13.93;100.00;100582.53;5011508;28;20165;-71
2021/08/03 00:19:50;;;;;;;0.40;0.40;;;;;;;13.96;100.00;100592.03;5026682;28;20648;-71
2021/08/03 00:22:15;;;;;;;1.73;0.60;;;;;;;13.97;100.00;100566.97;5011334;28;20272;-72
2021/08/03 00:24:41;;;;;;;0.80;0.80;;;;;;;14.04;100.00;100566.47;5011270;28;20271;-72
2021/08/03 00:27:08;;;;;;;3.07;1.63;;;;;;;14.06;100.00;100588.94;5011445;28;20263;-72
2021/08/03 00:29:35;;;;;;;0.30;0.30;;;;;;;14.12;100.00;100584.84;5011295;28;20191;-72
2021/08/03 00:32:01;;;;;;;1.33;0.70;;;;;;;14.10;100.00;100575.31;5011110;28;20196;-72
2021/08/03 00:34:26;;;;;;;1.13;0.70;;;;;;;14.18;100.00;100569.78;5011575;28;20181;-72
2021/08/03 00:36:52;;;;;;;3.10;0.60;;;;;;;14.21;100.00;100573.81;5011214;28;20172;-72
2021/08/03 00:39:17;;;;;;;0.60;0.60;;;;;;;14.17;100.00;100564.59;5010900;28;20704;-72
2021/08/03 00:41:50;;;;;;;0.50;0.50;;;;;;;14.21;100.00;100563.63;5011023;28;20303;-72
2021/08/03 00:44:16;;;;;;;0.60;0.60;;;;;;;14.25;100.00;100569.25;5011238;28;20168;-72
2021/08/03 00:46:42;;;;;;;0.47;0.47;;;;;;;14.27;100.00;100588.97;5011431;28;20215;-72
2021/08/03 00:49:08;;;;;;;1.23;0.70;;;;;;;14.24;100.00;100567.66;5011051;28;20227;-72
2021/08/03 00:51:35;;;;;;;0.70;0.50;;;;;;;14.22;100.00;100564.44;5011007;28;20640;-71
2021/08/03 00:54:01;;;;;;;1.00;0.67;;;;;;;14.19;100.00;100593.38;5011025;28;20199;-71
2021/08/03 00:56:26;;;;;;;0.97;0.60;;;;;;;14.15;100.00;100570.44;5010953;28;20181;-72
2021/08/03 00:58:51;;;;;;;0.80;0.60;;;;;;;14.14;100.00;100577.06;5010938;28;20179;-71
2021/08/03 01:01:17;;;;;;;0.40;0.40;;;;;;;14.07;100.00;100592.47;5010937;28;20183;-72
2021/08/03 01:03:42;;;;;;;0.53;0.53;;;;;;;14.00;100.00;100590.22;5010977;28;20207;-72
2021/08/03 01:06:13;;;;;;;1.27;0.57;;;;;;;13.98;100.00;100601.56;5011210;28;20762;-72
2021/08/03 01:08:41;;;;;;;1.80;0.67;;;;;;;13.98;100.00;100593.31;5010839;28;20250;-72
2021/08/03 01:11:14;;;;;;;0.50;0.50;;;;;;;13.90;100.00;100612.59;5009592;28;20181;-72
2021/08/03 01:14:02;;;;;;;0.50;0.50;;;;;;;13.88;100.00;100612.91;5009716;28;20559;-72
2021/08/03 01:16:29;;;;;;;0.50;0.50;;;;;;;13.86;100.00;100608.88;5010683;28;20242;-72
2021/08/03 01:19:04;;;;;;;0.40;0.40;;;;;;;13.76;100.00;100636.72;5009638;28;20593;-72
2021/08/03 01:21:35;;;;;;;0.57;0.57;;;;;;;13.58;100.00;100623.00;5010902;28;20272;-71
2021/08/03 01:24:12;;;;;;;3.17;0.67;;;;;;;13.49;100.00;100643.41;5010652;28;20259;-72
2021/08/03 01:27:01;;;;;;;0.73;0.60;;;;;;;13.47;100.00;100649.22;5010825;28;20235;-72
2021/08/03 01:29:29;;;;;;;1.80;0.60;;;;;;;13.52;100.00;100650.97;5010615;28;20204;-72
2021/08/03 01:32:01;;;;;;;1.27;0.60;;;;;;;13.59;100.00;100665.00;5010599;28;20537;-72
2021/08/03 01:34:29;;;;;;;1.20;0.70;;;;;;;13.68;100.00;100682.28;5010757;28;20169;-72
2021/08/03 01:36:56;;;;;;;1.50;0.50;;;;;;;13.64;100.00;100649.19;5010660;28;20177;-71
2021/08/03 01:39:30;;;;;;;1.07;0.77;;;;;;;13.63;100.00;100669.53;5010388;28;20593;-72
2021/08/03 01:41:58;;;;;;;0.50;0.50;;;;;;;13.64;100.00;100668.41;5010359;28;20176;-72
2021/08/03 01:44:23;;;;;;;0.80;0.70;;;;;;;13.65;100.00;100664.53;5010610;28;20674;-72
2021/08/03 01:46:50;;;;;;;0.80;0.80;;;;;;;13.64;100.00;100673.88;5010580;28;20172;-72
2021/08/03 01:49:20;;;;;;;1.53;0.80;;;;;;;13.62;100.00;100683.59;5010393;28;20212;-72
2021/08/03 01:51:46;;;;;;;0.60;0.60;;;;;;;13.60;100.00;100680.38;5010405;28;20257;-72
2021/08/03 01:54:12;;;;;;;0.60;0.60;;;;;;;13.65;100.00;100680.19;5012319;28;20254;-72
2021/08/03 01:56:38;;;;;;;0.97;0.80;;;;;;;13.67;100.00;100686.97;5014325;28;20660;-72
2021/08/03 01:59:05;;;;;;;3.13;0.50;;;;;;;13.67;100.00;100686.97;5014064;28;20184;-72
2021/08/03 02:01:31;;;;;;;0.73;0.50;;;;;;;13.64;100.00;100695.84;5013844;28;20184;-72
2021/08/03 02:03:58;;;;;;;0.50;0.50;;;;;;;13.58;100.00;100699.88;5014013;28;20291;-72
2021/08/03 02:06:25;;;;;;;0.83;0.60;;;;;;;13.61;100.00;100703.94;5013917;28;20169;-72
2021/08/03 02:08:55;;;;;;;1.07;0.70;;;;;;;13.68;100.00;100679.53;5013768;28;20637;-72
2021/08/03 02:11:27;;;;;;;0.70;0.70;;;;;;;13.66;100.00;100704.56;5013718;28;20165;-72
2021/08/03 02:13:52;;;;;;;0.80;0.70;;;;;;;13.61;100.00;100684.72;5013757;28;20165;-72
2021/08/03 02:16:18;;;;;;;0.60;0.60;;;;;;;13.61;100.00;100707.50;5013583;28;20662;-72
2021/08/03 02:18:46;;;;;;;0.70;0.70;;;;;;;13.54;100.00;100712.66;5013689;28;20173;-72
2021/08/03 02:21:15;;;;;;;0.83;0.83;;;;;;;13.51;100.00;100707.00;5013532;28;20637;-72
2021/08/03 02:23:41;;;;;;;0.50;0.50;;;;;;;13.48;100.00;100715.91;5013517;28;20172;-72
2021/08/03 02:26:11;;;;;;;0.73;0.50;;;;;;;13.39;100.00;100691.19;5013528;28;20870;-71
2021/08/03 02:28:36;;;;;;;1.07;0.47;;;;;;;13.33;100.00;100701.53;5013657;28;20547;-72
2021/08/03 02:31:09;;;;;;;0.93;0.93;;;;;;;13.30;100.00;100720.56;5013426;28;20260;-72
2021/08/03 02:33:48;;;;;;;0.73;0.73;;;;;;;13.27;100.00;100711.03;5013362;28;20189;-72
2021/08/03 02:36:19;;;;;;;1.97;0.90;;;;;;;13.26;100.00;100725.91;5013470;28;20164;-72
2021/08/03 02:38:49;;;;;;;0.60;0.60;;;;;;;13.20;100.00;100715.41;5012929;28;20243;-72
2021/08/03 02:41:15;;;;;;;0.50;0.50;;;;;;;13.13;100.00;100712.31;5013162;28;20177;-71
2021/08/03 02:43:42;;;;;;;0.87;0.60;;;;;;;13.09;100.00;100714.88;5013146;28;20180;-72
2021/08/03 02:46:10;;;;;;;1.73;0.60;;;;;;;13.07;100.00;100728.13;5013150;28;20204;-72
2021/08/03 02:48:36;;;;;;;1.13;0.70;;;;;;;12.98;100.00;100741.81;5013199;28;20265;-72
2021/08/03 02:51:02;;;;;;;0.60;0.60;;;;;;;12.96;100.00;100744.06;5013073;28;20176;-71
2021/08/03 02:53:55;;;;;;;0.70;0.70;;;;;;;12.96;100.00;100740.53;5013250;28;20226;-71
2021/08/03 02:56:23;;;;;;;0.70;0.70;;;;;;;12.96;100.00;100752.31;5013486;28;20835;-72
2021/08/03 02:58:51;;;;;;;0.70;0.70;;;;;;;12.98;100.00;100757.47;5028172;28;20589;-72
2021/08/03 03:01:20;;;;;;;0.50;0.50;;;;;;;13.02;100.00;100756.53;5012962;28;20191;-72
2021/08/03 03:03:50;;;;;;;1.23;0.77;;;;;;;13.05;100.00;100736.69;5011798;28;20536;-72
2021/08/03 03:06:17;;;;;;;2.00;0.90;;;;;;;13.11;100.00;100776.53;5011819;28;20172;-72
2021/08/03 03:08:44;;;;;;;0.77;0.77;;;;;;;13.14;100.00;100774.28;5012688;28;20686;-72
2021/08/03 03:11:12;;;;;;;0.80;0.80;;;;;;;13.17;100.00;100777.19;5012732;28;20185;-72
2021/08/03 03:13:42;;;;;;;0.77;0.77;;;;;;;13.17;100.00;100782.69;5012823;28;20177;-72
2021/08/03 03:16:10;;;;;;;0.77;0.67;;;;;;;13.18;100.00;100784.34;5012481;28;20245;-72
2021/08/03 03:18:38;;;;;;;1.17;1.07;;;;;;;13.20;100.00;100775.78;5012606;28;20645;-72
2021/08/03 03:21:04;;;;;;;1.10;1.00;;;;;;;13.20;100.00;100789.50;5012284;28;20177;-72
2021/08/03 03:23:35;;;;;;;1.17;1.07;;;;;;;13.23;100.00;100778.69;5012336;28;20177;-72
2021/08/03 03:26:02;;;;;;;1.40;1.07;;;;;;;13.24;100.00;100793.22;5012290;28;20181;-72
2021/08/03 03:28:31;;;;;;;1.43;0.77;;;;;;;13.24;100.00;100798.69;5012286;28;20668;-72
2021/08/03 03:30:58;;;;;;;0.90;0.90;;;;;;;13.25;100.00;100773.69;5012285;28;20183;-72
2021/08/03 03:33:24;;;;;;;0.93;0.93;;;;;;;13.28;100.00;100797.72;5012123;28;20269;-72
2021/08/03 03:35:52;;;;;;;1.87;0.90;;;;;;;13.30;100.00;100797.41;5010914;28;20546;-72
2021/08/03 03:38:21;;;;;;;1.00;0.90;;;;;;;13.31;100.00;100796.31;5011943;28;20207;-72
2021/08/03 03:40:48;;;;;;;1.40;1.30;;;;;;;13.34;100.00;100812.13;5012130;28;20192;-72
2021/08/03 03:43:17;;;;;;;1.10;1.00;;;;;;;13.34;100.00;100818.41;5012027;28;20248;-72
2021/08/03 03:45:53;;;;;;;0.93;0.83;;;;;;;13.36;100.00;100805.19;5027253;28;20507;-73
2021/08/03 03:48:20;;;;;;;1.47;1.10;;;;;;;13.40;100.00;100808.06;5011980;28;20672;-72
2021/08/03 03:50:55;;;;;;;0.80;0.80;;;;;;;13.45;100.00;100826.31;5011864;28;20266;-72
2021/08/03 03:53:22;;;;;;;0.87;0.87;;;;;;;13.48;100.00;100823.75;5011851;28;20164;-72
2021/08/03 03:55:51;;;;;;;1.27;0.97;;;;;;;13.50;100.00;100824.25;5011844;28;20172;-72
2021/08/03 03:58:18;;;;;;;1.87;1.10;;;;;;;13.54;100.00;100841.69;5011843;28;20267;-72
2021/08/03 04:00:43;;;;;;;1.17;0.80;;;;;;;13.54;100.00;100806.00;5011940;28;20659;-72
2021/08/03 04:03:09;;;;;;;1.03;0.90;;;;;;;13.57;100.00;100813.56;5011617;28;20165;-72
2021/08/03 04:05:40;;;;;;;1.00;0.87;;;;;;;13.56;100.00;100809.22;5011998;28;20203;-72
2021/08/03 04:08:09;;;;;;;0.97;0.87;;;;;;;13.55;100.00;100804.84;5011563;28;20286;-72
2021/08/03 04:10:37;;;;;;;0.70;0.70;;;;;;;13.53;100.00;100826.34;5026806;28;20172;-72
2021/08/03 04:13:03;;;;;;;0.77;0.77;;;;;;;13.51;100.00;100847.00;5011483;28;20184;-72
2021/08/03 04:15:29;;;;;;;1.37;1.00;;;;;;;13.53;100.00;100801.63;5011421;28;20192;-72
2021/08/03 04:17:54;;;;;;;0.80;0.73;;;;;;;13.58;100.00;100814.38;5011277;28;20719;-72
2021/08/03 04:20:20;;;;;;;1.03;0.90;;;;;;;13.64;100.00;100835.88;5011526;28;20187;-72
2021/08/03 04:22:45;;;;;;;1.30;1.10;;;;;;;13.75;100.00;100846.56;5011313;28;20534;-72
2021/08/03 04:25:11;;;;;;;0.97;0.97;;;;;;;13.78;100.00;100810.19;5011862;28;20237;-72
2021/08/03 04:27:37;;;;;;;0.67;0.63;;;;;;;13.80;100.00;100816.97;5010857;28;20635;-72
2021/08/03 04:30:04;;;;;;;1.43;0.80;;;;;;;13.84;100.00;100848.16;5010806;28;20168;-72
2021/08/03 04:32:29;;;;;;;1.77;0.93;;;;;;;13.89;100.00;100814.25;5010582;28;20207;-72
2021/08/03 04:34:55;;;;;;;0.93;0.87;;;;;;;13.83;100.00;100837.50;5010723;28;20176;-72
2021/08/03 04:37:20;;;;;;;1.07;1.07;;;;;;;13.80;100.00;100846.38;5010360;28;20185;-72
2021/08/03 04:39:46;;;;;;;1.27;1.00;;;;;;;13.70;100.00;100853.00;5010696;28;20208;-72
2021/08/03 04:42:11;;;;;;;1.87;0.90;;;;;;;13.66;100.00;100854.78;5025616;28;20262;-72
2021/08/03 04:44:36;;;;;;;1.90;0.80;;;;;;;13.65;100.00;100862.22;5010959;28;20184;-72
2021/08/03 04:47:03;;;;;;;1.27;1.17;;;;;;;13.67;100.00;100839.91;5010689;28;20408;-72
2021/08/03 04:49:28;;;;;;;1.13;1.07;;;;;;;13.69;100.00;100871.41;5025795;28;20477;-72
2021/08/03 04:51:53;;;;;;;2.10;1.70;;;;;;;13.74;100.00;100873.19;5010298;28;20531;-72
2021/08/03 04:54:19;;;;;;;1.30;1.20;;;;;;;13.78;100.00;100867.88;5010547;28;20187;-72
2021/08/03 04:56:44;;;;;;;1.80;1.30;;;;;;;13.76;100.00;100881.13;5010454;28;20206;-72
2021/08/03 04:59:09;;;;;;;1.90;0.90;;;;;;;13.72;100.00;100888.38;5010624;28;20172;-72
2021/08/03 05:01:35;;;;;;;1.20;1.10;;;;;;;13.70;100.00;100889.50;5010315;28;20683;-72
2021/08/03 05:04:00;;;;;;;1.93;1.00;;;;;;;13.66;100.00;100885.78;5010360;28;20173;-72
2021/08/03 05:06:26;;;;;;;1.00;1.00;;;;;;;13.62;100.00;100882.06;5010886;28;20188;-72
2021/08/03 05:08:51;;;;;;;1.10;1.00;;;;;;;13.69;100.00;100898.06;5010378;28;20283;-72
2021/08/03 05:11:17;;;;;;;1.47;1.37;;;;;;;13.73;100.00;100904.53;5010189;28;20204;-72
2021/08/03 05:13:42;;;;;;;3.80;1.30;;;;;;;13.77;100.00;100915.69;5010513;28;20209;-72
2021/08/03 05:16:07;;;;;;;0.60;0.60;;;;;;;13.79;100.00;100908.75;5008957;28;20193;-72
2021/08/03 05:18:33;;;;;;;1.30;1.03;;;;;;;13.80;100.00;100915.03;5025487;28;20292;-72
2021/08/03 05:20:58;;;;;;;1.10;1.00;;;;;;;13.78;100.00;100923.59;5008857;28;20203;-72
2021/08/03 05:23:23;;;;;;;1.60;1.10;;;;;;;13.80;100.00;100937.81;5010069;28;20269;-72
2021/08/03 05:25:49;;;;;;;1.10;0.90;;;;;;;13.80;100.00;100907.63;5025663;28;20268;-72
2021/08/03 05:28:14;;;;;;;1.30;1.20;;;;;;;13.77;100.00;100974.19;5010767;28;20200;-72
2021/08/03 05:30:39;;;;;;;1.47;1.30;;;;;;;13.80;100.00;100987.25;5013986;28;20208;-72
2021/08/03 05:33:05;;;;;;;1.43;1.20;;;;;;;13.86;100.00;100919.25;5013747;28;20192;-71
2021/08/03 05:35:30;;;;;;;3.07;1.87;;;;;;;13.94;100.00;100948.66;5014029;28;20180;-72
2021/08/03 05:37:55;;;;;;;1.87;1.20;;;;;;;13.97;100.00;100923.28;5013621;28;20185;-72
2021/08/03 05:40:21;;;;;;;2.37;1.37;;;;;;;14.02;100.00;100958.84;5013908;28;20340;-72
2021/08/03 05:42:46;;;;;;;1.43;1.33;;;;;;;14.06;100.00;100929.63;5013818;28;20672;-72
2021/08/03 05:45:12;;;;;;;1.07;0.97;;;;;;;14.10;100.00;100933.31;5013820;28;20189;-71
2021/08/03 05:47:37;;;;;;;1.27;1.17;;;;;;;14.17;100.00;100941.06;5013536;28;20176;-71
2021/08/03 05:50:05;;;;;;;1.30;1.20;;;;;;;14.21;100.00;100926.38;5010605;28;20259;-71
2021/08/03 05:52:31;;;;;;;1.30;1.20;;;;;;;14.24;100.00;100927.66;5012357;28;20199;-71
2021/08/03 05:54:56;;;;;;;0.97;0.97;;;;;;;14.28;100.00;100934.94;5014057;28;20177;-72
2021/08/03 05:57:22;;;;;;;1.23;1.13;;;;;;;14.29;100.00;100916.50;5013964;28;20299;-74
2021/08/03 05:59:47;;;;;;;1.67;1.57;;;;;;;14.26;100.00;100920.72;5014057;28;20585;-72
2021/08/03 06:02:12;;;;;;;1.33;1.00;;;;;;;14.28;100.00;100920.38;5013805;28;20187;-71
2021/08/03 06:04:38;;;;;;;1.10;1.00;;;;;;;14.28;100.00;100923.94;5013926;28;20595;-73
2021/08/03 06:07:05;;;;;;;1.10;1.10;;;;;;;14.22;100.00;100907.94;5013996;28;20172;-71
2021/08/03 06:09:31;;;;;;;1.37;1.03;;;;;;;14.18;100.00;100918.78;5014967;28;20212;-72
2021/08/03 06:12:01;;;;;;;1.20;1.20;;;;;;;14.17;100.00;100919.91;5015315;28;20564;-71
2021/08/03 06:14:44;;;;;;;3.37;1.77;;;;;;;14.15;100.00;100919.41;5013814;28;20184;-71
2021/08/03 06:17:13;;;;;;;1.37;1.10;;;;;;;14.23;100.00;100915.88;5013809;28;20180;-71
2021/08/03 06:19:46;;;;;;;1.17;0.90;;;;;;;14.28;100.00;100904.69;5005599;28;20180;-71
2021/08/03 06:22:13;;;;;;;1.57;1.20;;;;;;;14.26;100.00;100906.97;5011085;28;20327;-71
2021/08/03 06:24:40;;;;;;;3.43;1.33;;;;;;;14.27;100.00;100899.53;5013567;28;20177;-71
2021/08/03 06:27:08;;;;;;;1.40;1.30;;;;;;;14.29;100.00;100902.75;5013383;28;20628;-71
2021/08/03 06:29:35;;;;;;;1.80;1.50;;;;;;;14.30;100.00;100904.38;5013394;28;20208;-71
2021/08/03 06:32:02;;;;;;;1.63;1.10;;;;;;;14.39;100.00;100901.63;5013357;28;20644;-72
2021/08/03 06:34:27;;;;;;;2.20;1.70;;;;;;;14.48;100.00;100903.25;5013321;28;20179;-71
2021/08/03 06:36:53;;;;;;;1.30;1.20;;;;;;;14.54;100.00;100901.13;5013672;28;20196;-72
2021/08/03 06:39:18;;;;;;;1.33;1.23;;;;;;;14.57;100.00;100905.97;5012824;28;20188;-72
2021/08/03 06:41:45;;;;;;;0.90;0.90;;;;;;;14.59;100.00;100901.75;5013120;28;20183;-72
2021/08/03 06:44:17;;;;;;;1.33;1.23;;;;;;;14.67;100.00;100902.91;5013382;28;20263;-71
2021/08/03 06:46:45;;;;;;;1.50;1.40;;;;;;;14.76;100.00;100903.69;5013103;28;20188;-72
2021/08/03 06:49:13;;;;;;;1.67;1.57;;;;;;;14.84;100.00;100913.84;5013054;28;20216;-71
2021/08/03 06:51:41;;;;;;;3.33;1.60;;;;;;;14.90;100.00;100906.22;5012782;28;20192;-71
2021/08/03 06:54:11;;;;;;;2.13;1.93;;;;;;;15.05;100.00;100907.63;5013020;28;20172;-71
2021/08/03 06:56:44;;;;;;;1.97;1.77;;;;;;;15.03;100.00;100901.63;5013347;28;20208;-71
2021/08/03 06:59:17;;;;;;;2.37;1.60;;;;;;;15.07;100.00;100897.09;5012959;28;20500;-71
2021/08/03 07:01:47;;;;;;;1.70;1.40;;;;;;;15.13;100.00;100910.34;5012726;28;20165;-71
2021/08/03 07:04:18;;;;;;;1.27;1.10;;;;;;;15.24;100.00;100907.22;5013328;28;20192;-71
2021/08/03 07:06:48;;;;;;;1.10;1.00;;;;;;;15.36;100.00;100907.31;5012871;28;20169;-71
2021/08/03 07:09:14;;;;;;;1.20;1.10;;;;;;;15.51;100.00;100908.69;5012926;28;20862;-71
2021/08/03 07:11:40;;;;;;;1.03;1.00;;;;;;;15.64;100.00;100913.19;5012475;28;20262;-71
2021/08/03 07:14:06;;;;;;;1.10;1.00;;;;;;;15.79;100.00;100904.34;5013001;28;20214;-71
2021/08/03 07:16:32;;;;;;;1.17;0.77;;;;;;;15.74;98.63;100891.53;5012543;28;20181;-71
2021/08/03 07:18:58;;;;;;;1.30;1.20;;;;;;;15.63;98.56;100895.84;5012503;28;20643;-71
2021/08/03 07:21:25;;;;;;;2.33;1.10;;;;;;;15.78;99.60;100899.97;5010022;28;20268;-72
2021/08/03 07:23:56;;;;;;;0.80;0.80;;;;;;;15.94;97.29;100902.94;5010356;28;20542;-72
2021/08/03 07:26:23;;;;;;;1.47;0.90;;;;;;;16.06;96.95;100895.53;5004558;28;20176;-71
2021/08/03 07:28:48;;;;;;;1.43;1.10;;;;;;;15.86;96.63;100887.25;5012281;28;20698;-72
2021/08/03 07:31:14;;;;;;;1.10;1.00;;;;;;;15.70;96.23;100884.28;5012079;28;20180;-71
2021/08/03 07:33:39;;;;;;;2.27;0.93;;;;;;;15.91;96.19;100887.03;5011790;28;20188;-71
2021/08/03 07:36:04;;;;;;;1.07;0.73;;;;;;;16.12;96.51;100896.13;5011834;28;20177;-72
2021/08/03 07:38:30;;;;;;;0.87;0.87;;;;;;;16.27;95.49;100889.19;5011383;28;20185;-72
2021/08/03 07:40:55;;;;;;;1.80;0.50;;;;;;;16.40;93.86;100888.06;5011640;28;20186;-71
2021/08/03 07:43:21;;;;;;;0.77;0.63;;;;;;;16.50;93.60;100893.19;5011417;28;20191;-72
2021/08/03 07:45:46;;;;;;;0.90;0.80;;;;;;;16.63;94.42;100897.56;5011551;28;20284;-72
2021/08/03 07:48:13;;;;;;;1.23;1.10;;;;;;;16.71;92.17;100898.66;5011495;28;20719;-71
2021/08/03 07:50:38;;;;;;;0.70;0.70;;;;;;;16.75;91.17;100899.56;5011339;28;20185;-72
2021/08/03 07:53:03;;;;;;;1.70;0.80;;;;;;;16.85;90.63;100887.28;5010971;28;20589;-72
2021/08/03 07:55:29;;;;;;;0.83;0.70;;;;;;;16.87;90.93;100885.78;5011350;28;20260;-72
2021/08/03 07:57:54;;;;;;;3.60;0.80;;;;;;;16.79;89.03;100877.63;5010279;28;20266;-72
2021/08/03 08:00:19;;;;;;;0.67;0.60;;;;;;;16.81;87.99;100878.91;5011307;28;20177;-71
2021/08/03 08:02:45;;;;;;;0.97;0.70;;;;;;;16.85;86.72;100876.25;5011236;28;20168;-72
2021/08/03 08:05:10;;;;;;;1.40;0.97;;;;;;;16.89;88.21;100875.22;5009891;28;20283;-71
2021/08/03 08:07:36;;;;;;;1.90;1.10;;;;;;;16.84;87.69;100869.13;5011311;28;20180;-72
2021/08/03 08:10:02;;;;;;;1.50;0.80;;;;;;;16.81;88.96;100858.78;5011248;28;20184;-71
2021/08/03 08:12:27;;;;;;;1.70;0.70;;;;;;;16.80;89.69;100862.69;5010833;28;20176;-71
2021/08/03 08:14:52;;;;;;;1.37;0.80;;;;;;;16.84;88.82;100856.13;5011001;28;20532;-71
2021/08/03 08:17:17;;;;;;;0.90;0.90;;;;;;;16.97;87.51;100858.91;5011214;28;20180;-72
2021/08/03 08:19:44;;;;;;;1.57;0.70;;;;;;;16.99;81.26;100853.84;5011055;28;20173;-71
2021/08/03 08:22:10;;;;;;;1.97;0.70;;;;;;;17.12;83.56;100856.25;5011043;28;20375;-72
2021/08/03 08:24:35;;;;;;;2.30;0.80;;;;;;;17.03;87.04;100850.03;5011111;28;20184;-72
2021/08/03 08:27:01;;;;;;;1.23;0.90;;;;;;;16.83;86.91;100837.97;5010974;28;20242;-71
2021/08/03 08:29:26;;;;;;;0.80;0.70;;;;;;;16.59;87.20;100849.72;5011043;28;20222;-71
2021/08/03 08:31:52;;;;;;;1.87;0.80;;;;;;;16.53;87.45;100833.75;5010580;28;20181;-71
2021/08/03 08:34:18;;;;;;;2.87;0.90;;;;;;;16.56;88.41;100833.06;5010862;28;20177;-71
2021/08/03 08:36:44;;;;;;;1.13;1.03;;;;;;;16.83;89.61;100837.16;5010876;28;20263;-71
2021/08/03 08:39:09;;;;;;;3.20;0.90;;;;;;;16.94;84.95;100830.03;5010568;28;20532;-71
2021/08/03 08:41:37;;;;;;;0.60;0.60;;;;;;;17.15;85.55;100833.47;5010650;28;20674;-72
2021/08/03 08:44:04;;;;;;;0.73;0.70;;;;;;;17.25;83.35;100829.44;5010706;28;20359;-71
2021/08/03 08:46:37;;;;;;;2.80;0.80;;;;;;;17.12;84.11;100820.38;5010940;28;20172;-72
2021/08/03 08:49:06;;;;;;;1.83;1.10;;;;;;;17.29;85.10;100821.28;5010574;28;20203;-72
2021/08/03 08:51:32;;;;;;;2.90;1.00;;;;;;;17.30;85.60;100825.63;5010339;28;20659;-71
2021/08/03 08:54:01;;;;;;;0.97;0.70;;;;;;;17.43;88.61;100818.94;5025751;28;20180;-72
2021/08/03 08:56:28;;;;;;;0.80;0.77;;;;;;;17.60;84.13;100824.19;5025739;28;20184;-72
2021/08/03 08:58:53;;;;;;;1.00;0.90;;;;;;;17.69;83.44;100829.63;5010518;28;20660;-72
2021/08/03 09:01:19;;;;;;;2.03;0.80;;;;;;;17.91;80.73;100825.50;5010375;28;20208;-72
2021/08/03 09:03:44;;;;;;;1.93;1.10;;;;;;;17.81;81.04;100824.06;5012371;28;20204;-72
2021/08/03 09:06:10;;;;;;;1.10;1.00;;;;;;;17.72;77.12;100820.63;5014595;28;20192;-72
2021/08/03 09:08:39;;;;;;;1.13;0.70;;;;;;;17.72;79.92;100815.09;5014625;28;20660;-72
2021/08/03 09:11:16;;;;;;;0.97;0.97;;;;;;;17.51;77.99;100807.78;5014542;28;20172;-72
2021/08/03 09:14:02;;;;;;;1.00;0.80;;;;;;;17.45;78.40;100800.06;5014380;28;20180;-72
2021/08/03 09:16:48;;;;;;;0.60;0.60;;;;;;;17.59;78.79;100810.72;5014331;28;20192;-72
2021/08/03 09:19:31;;;;;;;0.90;0.90;;;;;;;17.76;79.87;100810.47;5014305;28;20184;-72
2021/08/03 09:22:17;;;;;;;1.53;0.70;;;;;;;18.07;78.74;100810.56;5013995;28;20215;-72
2021/08/03 09:24:44;;;;;;;2.30;0.70;;;;;;;18.26;76.22;100823.75;5014184;28;20256;-73
2021/08/03 09:27:30;;;;;;;0.60;0.60;;;;;;;18.03;75.75;100806.91;5014130;28;20181;-72
2021/08/03 09:29:55;;;;;;;1.50;0.70;;;;;;;18.19;73.09;100811.66;5014009;28;20235;-72
2021/08/03 09:32:31;;;;;;;0.97;0.83;;;;;;;17.95;72.24;100802.34;5013339;28;20274;-73
2021/08/03 09:35:15;;;;;;;0.93;0.80;;;;;;;18.10;72.01;100801.59;5011550;28;20188;-72
2021/08/03 09:37:43;;;;;;;2.27;1.03;;;;;;;18.19;74.89;100793.13;5008858;28;20188;-72
2021/08/03 09:40:21;;;;;;;0.80;0.70;;;;;;;18.51;75.09;100807.78;5014367;28;20193;-72
2021/08/03 09:43:01;;;;;;;1.23;0.70;;;;;;;18.91;74.31;100815.13;5014214;28;20302;-72
2021/08/03 09:45:29;;;;;;;1.00;0.80;;;;;;;18.63;69.74;100801.38;5003882;28;20373;-72
2021/08/03 09:48:07;;;;;;;0.90;0.90;;;;;;;18.55;70.98;100791.28;4998603;28;20284;-72
2021/08/03 09:50:51;;;;;;;1.13;1.00;;;;;;;18.63;70.86;100787.53;4994811;28;20200;-73
2021/08/03 09:53:39;;;;;;;0.70;0.70;;;;;;;18.77;70.44;101025.19;5009346;28;20197;-72
2021/08/03 09:56:11;;;;;;;1.10;1.00;;;;;;;18.70;70.68;100798.81;5014024;28;20185;-72
2021/08/03 09:58:48;;;;;;;4.90;1.03;;;;;;;18.51;73.25;100774.56;5014210;28;20160;-72
2021/08/03 10:01:25;;;;;;;1.20;1.10;;;;;;;18.54;71.98;100760.06;5029474;28;20168;-72
2021/08/03 10:03:51;;;;;;;1.33;0.90;;;;;;;18.89;73.96;100760.13;5014157;28;20171;-71
2021/08/03 10:06:19;;;;;;;1.10;1.00;;;;;;;19.03;71.76;100754.91;5013912;28;20175;-71
2021/08/03 10:08:46;;;;;;;1.10;0.90;;;;;;;19.19;72.32;100757.66;5014002;28;20302;-72
2021/08/03 10:11:13;;;;;;;1.37;0.97;;;;;;;19.40;69.07;100750.97;5013817;28;20180;-72
2021/08/03 10:13:39;;;;;;;2.63;0.93;;;;;;;19.44;69.43;100749.88;5013693;28;20208;-72
2021/08/03 10:16:05;;;;;;;1.30;0.90;;;;;;;19.22;70.07;100740.28;5013493;28;20215;-72
2021/08/03 10:18:31;;;;;;;1.87;0.93;;;;;;;18.81;69.88;100739.00;5013778;28;20663;-73
2021/08/03 10:20:57;;;;;;;0.90;0.80;;;;;;;18.69;70.00;100731.59;5013790;28;20180;-72
2021/08/03 10:23:22;;;;;;;1.17;1.07;;;;;;;18.70;70.62;100727.66;5013595;28;20540;-72
2021/08/03 10:25:48;;;;;;;1.27;0.90;;;;;;;18.56;71.71;100718.19;5028771;28;20193;-72
2021/08/03 10:28:29;;;;;;;1.67;1.00;;;;;;;18.73;70.87;100728.91;5013538;28;20193;-72
2021/08/03 10:30:54;;;;;;;1.90;1.10;;;;;;;18.94;71.37;100720.28;5013537;28;20187;-72
2021/08/03 10:33:46;;;;;;;1.27;1.17;;;;;;;18.62;71.21;100709.22;5013422;28;20175;-72
2021/08/03 10:36:36;;;;;;;1.00;0.90;;;;;;;18.69;70.67;100711.41;5013573;28;20592;-72
2021/08/03 10:39:08;;;;;;;0.70;0.70;;;;;;;18.51;69.32;100708.16;5013277;28;20248;-72
2021/08/03 10:41:59;;;;;;;1.17;0.70;;;;;;;18.48;68.07;100716.38;5013174;28;20636;-72
2021/08/03 10:44:40;;;;;;;1.00;1.00;;;;;;;18.71;70.33;100715.41;5013172;28;20679;-72
2021/08/03 10:47:32;;;;;;;0.60;0.60;;;;;;;19.03;70.66;100709.81;5013354;28;20188;-72
2021/08/03 10:50:06;;;;;;;1.50;0.80;;;;;;;19.05;69.55;100703.91;5028204;28;20503;-72
2021/08/03 10:52:48;;;;;;;2.23;1.13;;;;;;;18.82;65.63;100703.81;5013001;28;20628;-72
2021/08/03 10:55:45;;;;;;;1.53;1.20;;;;;;;18.75;68.27;100704.41;5013055;28;20193;-72
2021/08/03 10:58:13;;;;;;;6.20;1.00;;;;;;;18.53;66.75;100694.00;5012985;28;20180;-73
2021/08/03 11:00:43;;;;;;;0.80;0.80;;;;;;;18.86;69.59;100697.16;5012993;28;20226;-72
2021/08/03 11:03:36;;;;;;;0.60;0.60;;;;;;;19.06;68.03;100702.72;5012859;28;20172;-72
2021/08/03 11:06:09;;;;;;;1.30;0.90;;;;;;;18.99;66.38;100689.53;5013147;28;20211;-72
2021/08/03 11:08:36;;;;;;;0.80;0.80;;;;;;;18.97;67.88;100698.22;5012738;28;20287;-72
2021/08/03 11:11:07;;;;;;;0.80;0.80;;;;;;;18.90;70.18;100689.75;5012757;28;20260;-72
2021/08/03 11:13:38;;;;;;;1.30;0.90;;;;;;;18.87;68.61;100690.47;5012633;28;20173;-72
2021/08/03 11:16:08;;;;;;;0.70;0.70;;;;;;;18.94;70.51;100692.56;5012831;28;20427;-71
2021/08/03 11:18:42;;;;;;;1.10;0.80;;;;;;;18.95;73.04;100686.72;5012672;28;20172;-72
2021/08/03 11:21:12;;;;;;;1.57;0.90;;;;;;;18.97;73.61;100691.88;5012530;28;20194;-72
2021/08/03 11:23:56;;;;;;;0.70;0.70;;;;;;;18.85;73.07;100684.50;5012421;28;20180;-72
2021/08/03 11:26:23;;;;;;;0.67;0.67;;;;;;;18.77;73.68;100682.72;5026909;28;20564;-73